Saint George, UT

3:44 PM MDT on March 29, 2015 (GMT -0600)
Cedar City Regional | | Change Station
CLOSE
Current Station
Airport
Location: Cedar City,
Elevation: 5620 ft
Nearby Weather Stations

Elev 5620 ft 37.70 °N, 113.10 °W | Updated 51 minutes ago

Clear
Clear
69 °F
Feels Like 69 °F
N
0
Wind Variable Wind from North

Today
High -- | Low -- °F
--% Chance of Precip.
Yesterday
High -- | Low -- °F
Precip. -- in
7:24 AM 7:54 PM
Waxing Gibbous, 74% visible
Pressure 30.09 in
Visibility 10.0 miles
Clouds Clear
Dew Point 18 °F
Humidity 14%
Rainfall 0.00 in
Snow Depth Not available.
UV 9 out of 12
Pollen 10.20 out of 12
Air Quality Not available.
Flu Activity Not available.
METAR KCDC 292053Z AUTO 00000KT 10SM CLR 21/M08 A3022 RMK AO2 SLP190 T02061078 58022

More Conditions Fewer Conditions

Pressure 30.09 in
Visibility 10.0 miles
Clouds Clear
Dew Point 18 °F
Humidity 14%
Rainfall 0.00 in
Snow Depth Not available.
UV 9 out of 12
Pollen 10.20 out of 12
Air Quality Not available.
Flu Activity Not available.
METAR KCDC 292053Z AUTO 00000KT 10SM CLR 21/M08 A3022 RMK AO2 SLP190 T02061078 58022

More Conditions Fewer Conditions

10-Day Weather Forecast

Almanac

Astronomy

Mar. 29, 2015 Rise Set
Actual Time
Civil Twilight
Nautical Twilight
Astronomical Twilight
Moon
Length of Visible Light
Length of Day
Tomorrow will be .
, % of the Moon is Illuminated

Today's Extremes

State Highs State Lows

Community

WunderPhotos

Upload Photos

1,809,364 photos uploaded!

WunderBlogs® & News

Nearby

Air Quality

  Air Quality AQ Index Pollutant
Not available.

Snow Depth

Station Depth Elevation

Earthquake Activity

City Distance Mag. Time & Date
Minimum magnitude displayed is 2.5.

Coastal Water Temperatures

Place Temperature

Stations

Nearby Weather Stations

Station Location Temp. Windchill Dew Point Humidity Wind Precip. Elev Updated Type